Time;durP1;ratioP1;P1;durP2;ratioP2;P2;SDS_P1;SDS_P2;PMS_P1;PMS_P2;Temp;Humidity;BMP_temperature;BMP_pressure;BME280_temperature;BME280_humidity;BME280_pressure;Samples;Min_cycle;Max_cycle;Signal;HPM_P1;HPM_P2
2024/01/23 00:02:23;;;;;;;71.97;38.83;;;3.70;65.40;;;;;;4937930;29;20042;-67
2024/01/23 00:04:49;;;;;;;70.63;38.17;;;3.70;65.50;;;;;;4938852;29;20070;-66
2024/01/23 00:07:15;;;;;;;76.85;41.08;;;3.70;65.60;;;;;;4938789;29;20027;-66
2024/01/23 00:09:41;;;;;;;67.13;39.40;;;3.60;65.90;;;;;;4939001;29;20027;-66
2024/01/23 00:12:07;;;;;;;71.43;37.85;;;3.60;66.40;;;;;;4938666;29;20035;-67
2024/01/23 00:14:34;;;;;;;67.47;37.92;;;3.60;66.00;;;;;;4938855;29;20030;-67
2024/01/23 00:17:00;;;;;;;77.30;41.90;;;3.50;66.10;;;;;;4938814;29;20046;-67
2024/01/23 00:19:26;;;;;;;76.07;41.78;;;3.50;66.20;;;;;;4938631;29;20031;-67
2024/01/23 00:21:52;;;;;;;70.43;40.03;;;3.40;66.10;;;;;;4939107;29;20028;-67
2024/01/23 00:24:18;;;;;;;74.63;39.03;;;3.40;66.40;;;;;;4939085;29;20342;-66
2024/01/23 00:26:44;;;;;;;77.95;41.38;;;3.40;66.20;;;;;;4938772;29;20070;-66
2024/01/23 00:29:10;;;;;;;76.05;41.85;;;3.40;66.40;;;;;;4938417;29;20062;-66
2024/01/23 00:31:37;;;;;;;74.85;40.50;;;3.30;66.70;;;;;;4938433;29;20033;-66
2024/01/23 00:34:04;;;;;;;69.75;39.58;;;3.30;66.30;;;;;;4938928;29;20066;-66
2024/01/23 00:36:30;;;;;;;72.78;37.75;;;3.30;66.10;;;;;;4938568;29;20059;-66
2024/01/23 00:38:55;;;;;;;76.40;41.53;;;3.30;66.20;;;;;;4937298;29;20055;-66
2024/01/23 00:41:22;;;;;;;70.35;39.55;;;3.30;66.70;;;;;;4937324;29;20079;-66
2024/01/23 00:43:48;;;;;;;82.90;42.25;;;3.20;66.70;;;;;;4937249;29;20346;-66
2024/01/23 00:46:14;;;;;;;75.55;40.97;;;3.20;66.60;;;;;;4938241;29;20032;-66
2024/01/23 00:48:40;;;;;;;78.85;41.33;;;3.20;66.70;;;;;;4938130;29;20031;-66
2024/01/23 00:51:06;;;;;;;75.65;40.08;;;3.10;66.50;;;;;;4938694;29;20035;-66
2024/01/23 00:53:34;;;;;;;74.18;40.05;;;3.10;66.60;;;;;;4937214;29;20032;-66
2024/01/23 00:56:00;;;;;;;69.75;37.10;;;3.10;66.80;;;;;;4938564;29;20129;-67
2024/01/23 00:58:26;;;;;;;76.90;42.58;;;3.10;67.00;;;;;;4937804;29;20056;-67
2024/01/23 01:00:52;;;;;;;73.32;39.58;;;3.00;67.20;;;;;;4938341;29;20354;-67
2024/01/23 01:03:18;;;;;;;72.80;39.72;;;2.90;67.10;;;;;;4937268;29;20035;-67
2024/01/23 01:05:45;;;;;;;75.47;40.60;;;2.90;67.30;;;;;;4938306;29;20039;-67
2024/01/23 01:08:11;;;;;;;79.35;40.58;;;2.90;67.20;;;;;;4937915;29;20027;-66
2024/01/23 01:10:37;;;;;;;71.68;41.45;;;2.80;67.30;;;;;;4937973;29;20027;-66
2024/01/23 01:13:03;;;;;;;79.53;41.33;;;2.80;67.30;;;;;;4937977;29;20035;-66
2024/01/23 01:15:30;;;;;;;73.07;38.70;;;2.80;67.10;;;;;;4937853;29;20023;-66
2024/01/23 01:17:56;;;;;;;78.55;42.13;;;2.80;66.80;;;;;;4938094;29;20122;-67
2024/01/23 01:20:22;;;;;;;85.93;42.50;;;2.80;67.10;;;;;;4937863;29;20055;-67
2024/01/23 01:22:48;;;;;;;76.65;40.72;;;2.80;67.30;;;;;;4938136;29;20051;-67
2024/01/23 01:25:14;;;;;;;79.00;40.38;;;2.80;67.10;;;;;;4937781;29;20044;-67
2024/01/23 01:27:40;;;;;;;73.40;40.08;;;2.80;67.40;;;;;;4937788;29;20028;-67
2024/01/23 01:30:07;;;;;;;68.07;36.53;;;2.80;67.50;;;;;;4938097;29;20039;-66
2024/01/23 01:32:33;;;;;;;75.15;40.80;;;2.80;67.20;;;;;;4938333;29;20103;-66
2024/01/23 01:34:59;;;;;;;80.85;42.70;;;2.70;67.30;;;;;;4937723;29;20032;-66
2024/01/23 01:37:25;;;;;;;77.90;42.38;;;2.70;67.60;;;;;;4938237;29;20461;-66
2024/01/23 01:39:51;;;;;;;81.03;44.42;;;2.70;67.40;;;;;;4937753;29;20059;-66
2024/01/23 01:42:17;;;;;;;71.88;39.15;;;2.70;67.40;;;;;;4938262;29;20024;-66
2024/01/23 01:44:43;;;;;;;75.88;40.30;;;2.60;67.50;;;;;;4936685;29;20406;-66
2024/01/23 01:47:10;;;;;;;65.03;36.85;;;2.60;67.50;;;;;;4936600;29;20368;-66
2024/01/23 01:49:36;;;;;;;76.72;42.05;;;2.60;67.10;;;;;;4938167;29;20110;-66
2024/01/23 01:52:03;;;;;;;70.72;36.95;;;2.50;67.80;;;;;;4937910;29;20080;-66
2024/01/23 01:54:30;;;;;;;74.80;41.10;;;2.50;67.50;;;;;;4938041;29;20032;-66
2024/01/23 01:56:59;;;;;;;71.07;38.90;;;2.50;67.60;;;;;;4937749;29;20023;-66
2024/01/23 01:59:25;;;;;;;77.85;41.33;;;2.50;67.40;;;;;;4937386;29;20074;-66
2024/01/23 02:01:52;;;;;;;70.32;38.83;;;2.50;67.30;;;;;;4938082;29;20532;-66
2024/01/23 02:04:18;;;;;;;72.45;39.30;;;2.40;67.70;;;;;;4937527;29;20038;-66
2024/01/23 02:06:46;;;;;;;73.90;37.50;;;2.40;67.60;;;;;;4937535;29;20350;-66
2024/01/23 02:09:12;;;;;;;71.65;39.45;;;2.40;67.70;;;;;;4937501;29;20024;-66
2024/01/23 02:11:55;;;;;;;78.30;38.95;;;2.40;67.40;;;;;;4952797;29;20106;-66
2024/01/23 02:14:21;;;;;;;63.08;37.35;;;2.40;67.10;;;;;;4938283;29;20122;-66
2024/01/23 02:16:47;;;;;;;72.35;38.20;;;2.40;67.80;;;;;;4939756;29;20434;-66
2024/01/23 02:19:15;;;;;;;67.70;37.90;;;2.30;67.80;;;;;;4941048;29;20027;-66
2024/01/23 02:21:41;;;;;;;68.07;36.17;;;2.30;67.80;;;;;;4940986;29;20027;-67
2024/01/23 02:24:08;;;;;;;68.07;35.83;;;2.30;67.80;;;;;;4941211;29;20032;-67
2024/01/23 02:26:34;;;;;;;62.75;35.50;;;2.30;67.60;;;;;;4940667;29;20028;-66
2024/01/23 02:28:59;;;;;;;59.45;33.10;;;2.30;67.30;;;;;;4940554;29;20454;-66
2024/01/23 02:31:25;;;;;;;65.63;36.38;;;2.20;67.50;;;;;;4940564;29;20028;-66
2024/01/23 02:33:51;;;;;;;62.55;32.60;;;2.10;67.90;;;;;;4939560;29;20055;-67
2024/01/23 02:36:17;;;;;;;62.20;33.08;;;2.10;67.70;;;;;;4940939;29;20031;-66
2024/01/23 02:38:43;;;;;;;60.22;33.30;;;2.10;67.50;;;;;;4940413;29;20357;-66
2024/01/23 02:41:09;;;;;;;65.78;33.92;;;2.10;67.40;;;;;;4940690;29;20023;-66
2024/01/23 02:43:39;;;;;;;60.38;30.75;;;2.10;67.80;;;;;;4940618;29;20027;-66
2024/01/23 02:46:04;;;;;;;62.85;33.55;;;2.10;68.10;;;;;;4940257;29;20374;-66
2024/01/23 02:48:30;;;;;;;66.25;33.50;;;2.10;68.40;;;;;;4940223;29;20031;-66
2024/01/23 02:50:56;;;;;;;67.18;33.03;;;2.00;67.80;;;;;;4940461;29;20035;-66
2024/01/23 02:53:22;;;;;;;64.93;33.50;;;2.00;67.60;;;;;;4940183;29;20040;-66
2024/01/23 02:55:48;;;;;;;65.47;33.35;;;2.00;67.50;;;;;;4940075;29;20038;-66
2024/01/23 02:58:15;;;;;;;59.42;33.08;;;2.00;67.50;;;;;;4939959;29;20054;-67
2024/01/23 03:00:42;;;;;;;60.17;31.30;;;1.90;67.60;;;;;;4940009;29;20036;-67
2024/01/23 03:03:09;;;;;;;60.92;32.95;;;1.90;67.80;;;;;;4940006;29;20032;-67
2024/01/23 03:05:35;;;;;;;56.67;31.70;;;1.90;68.00;;;;;;4939008;29;20031;-67
2024/01/23 03:08:01;;;;;;;58.45;32.65;;;1.90;68.00;;;;;;4938882;29;20031;-67
2024/01/23 03:10:27;;;;;;;55.67;32.38;;;1.90;68.30;;;;;;4938923;29;20422;-66
2024/01/23 03:12:54;;;;;;;51.25;28.65;;;1.90;67.90;;;;;;4940033;29;20434;-66
2024/01/23 03:15:20;;;;;;;55.13;29.50;;;1.90;67.90;;;;;;4939637;29;20368;-66
2024/01/23 03:17:46;;;;;;;52.97;29.95;;;1.90;67.80;;;;;;4939730;29;20477;-66
2024/01/23 03:20:12;;;;;;;54.35;29.83;;;1.90;67.70;;;;;;4940236;29;20047;-67
2024/01/23 03:22:38;;;;;;;45.28;26.30;;;1.90;67.70;;;;;;4940216;29;20326;-66
2024/01/23 03:25:05;;;;;;;51.88;29.65;;;1.90;68.00;;;;;;4938973;29;20055;-66
2024/01/23 03:27:31;;;;;;;50.00;28.35;;;1.90;67.90;;;;;;4939470;29;20091;-66
2024/01/23 03:29:57;;;;;;;49.35;26.55;;;1.90;67.90;;;;;;4938550;29;20441;-66
2024/01/23 03:32:23;;;;;;;47.90;25.83;;;1.90;67.50;;;;;;4939419;29;20043;-66
2024/01/23 03:34:49;;;;;;;40.65;25.02;;;1.90;67.30;;;;;;4939876;29;20062;-66
2024/01/23 03:37:15;;;;;;;42.88;22.35;;;1.80;67.30;;;;;;4939564;29;20439;-66
2024/01/23 03:39:41;;;;;;;40.33;20.45;;;1.80;67.20;;;;;;4939592;29;20028;-66
2024/01/23 03:42:08;;;;;;;41.20;22.17;;;1.80;67.50;;;;;;4939277;29;20028;-66
2024/01/23 03:44:34;;;;;;;38.50;21.00;;;1.80;67.50;;;;;;4939264;29;20028;-66
2024/01/23 03:47:00;;;;;;;39.75;20.25;;;1.80;67.40;;;;;;4939392;29;20019;-66
2024/01/23 03:49:27;;;;;;;40.95;21.20;;;1.80;67.30;;;;;;4939434;29;20159;-66
2024/01/23 03:51:53;;;;;;;41.10;21.88;;;1.80;67.20;;;;;;4938141;29;20081;-66
2024/01/23 03:54:19;;;;;;;42.25;20.65;;;1.80;67.30;;;;;;4939334;29;20123;-66
2024/01/23 03:56:45;;;;;;;37.95;20.35;;;1.90;67.30;;;;;;4938970;29;20472;-66
2024/01/23 03:59:11;;;;;;;37.55;19.15;;;1.80;67.30;;;;;;4938673;29;20044;-66
2024/01/23 04:01:37;;;;;;;36.97;20.80;;;1.80;67.10;;;;;;4938889;29;20039;-66
2024/01/23 04:04:03;;;;;;;31.73;18.83;;;1.80;67.10;;;;;;4938921;29;20024;-66
2024/01/23 04:06:29;;;;;;;36.33;18.85;;;1.80;67.10;;;;;;4939106;29;20421;-66
2024/01/23 04:08:55;;;;;;;35.47;17.92;;;1.80;67.00;;;;;;4938973;29;20031;-66
2024/01/23 04:11:21;;;;;;;37.28;18.65;;;1.80;67.00;;;;;;4938732;29;20063;-66
2024/01/23 04:13:47;;;;;;;32.67;18.35;;;1.80;67.00;;;;;;4953728;29;20164;-66
2024/01/23 04:16:13;;;;;;;32.47;18.23;;;1.70;67.00;;;;;;4938869;29;20027;-66
2024/01/23 04:18:39;;;;;;;34.10;17.67;;;1.80;67.10;;;;;;4937577;29;20035;-66
2024/01/23 04:21:06;;;;;;;31.25;16.02;;;1.70;67.20;;;;;;4939062;29;20102;-67
2024/01/23 04:23:32;;;;;;;33.67;17.60;;;1.70;67.20;;;;;;4938491;29;20047;-66
2024/01/23 04:25:58;;;;;;;31.23;16.70;;;1.70;67.30;;;;;;4953885;29;20023;-66
2024/01/23 04:28:24;;;;;;;26.73;14.70;;;1.80;67.60;;;;;;4937450;29;20465;-66
2024/01/23 04:30:52;;;;;;;30.15;16.23;;;1.70;67.00;;;;;;4938376;29;20055;-66
2024/01/23 04:33:19;;;;;;;23.30;12.90;;;1.80;67.30;;;;;;4938937;29;20449;-66
2024/01/23 04:35:46;;;;;;;23.52;13.07;;;1.70;66.60;;;;;;4938331;29;20035;-66
2024/01/23 04:38:12;;;;;;;24.67;12.90;;;1.60;66.50;;;;;;4938470;29;20067;-66
2024/01/23 04:40:37;;;;;;;28.80;13.52;;;1.60;66.70;;;;;;4938821;29;20028;-66
2024/01/23 04:43:03;;;;;;;23.70;12.85;;;1.60;66.90;;;;;;4938296;29;20024;-67
2024/01/23 04:45:29;;;;;;;23.60;12.27;;;1.70;66.60;;;;;;4938770;29;20052;-67
2024/01/23 04:47:55;;;;;;;22.23;12.77;;;1.60;66.50;;;;;;4938130;29;20457;-66
2024/01/23 04:50:21;;;;;;;26.10;12.98;;;1.70;66.40;;;;;;4938113;29;20043;-66
2024/01/23 04:52:47;;;;;;;26.90;13.68;;;1.70;66.60;;;;;;4938164;29;20030;-66
2024/01/23 04:55:13;;;;;;;22.85;12.70;;;1.70;66.50;;;;;;4938326;29;20038;-66
2024/01/23 04:57:39;;;;;;;23.33;13.05;;;1.60;66.40;;;;;;4937833;29;20473;-66
2024/01/23 05:00:06;;;;;;;24.83;13.65;;;1.60;66.50;;;;;;4938388;29;20034;-66
2024/01/23 05:02:31;;;;;;;24.20;11.80;;;1.60;66.30;;;;;;4938036;29;20016;-66
2024/01/23 05:04:57;;;;;;;23.58;11.23;;;1.60;66.30;;;;;;4938573;29;20369;-67
2024/01/23 05:07:23;;;;;;;22.80;11.18;;;1.60;66.30;;;;;;4938174;29;20038;-67
2024/01/23 05:09:49;;;;;;;20.75;12.18;;;1.50;66.40;;;;;;4937968;29;20043;-67
2024/01/23 05:12:15;;;;;;;25.20;11.65;;;1.60;66.50;;;;;;4938528;29;20341;-67
2024/01/23 05:14:41;;;;;;;23.05;12.38;;;1.60;66.60;;;;;;4937889;29;20024;-67
2024/01/23 05:17:07;;;;;;;23.70;12.38;;;1.60;66.50;;;;;;4937824;29;20039;-67
2024/01/23 05:19:33;;;;;;;18.98;10.77;;;1.60;66.40;;;;;;4937924;29;20020;-66
2024/01/23 05:21:59;;;;;;;22.60;11.63;;;1.60;66.30;;;;;;4937877;29;20019;-66
2024/01/23 05:24:27;;;;;;;21.52;11.77;;;1.60;66.20;;;;;;4937895;29;20023;-66
2024/01/23 05:26:53;;;;;;;24.00;12.02;;;1.50;66.20;;;;;;4938056;29;20106;-66
2024/01/23 05:29:19;;;;;;;21.67;11.02;;;1.50;66.00;;;;;;4937846;29;20039;-66
2024/01/23 05:31:45;;;;;;;22.08;11.48;;;1.40;66.40;;;;;;4938108;29;20353;-66
2024/01/23 05:34:11;;;;;;;24.80;11.18;;;1.40;66.40;;;;;;4938342;29;20064;-66
2024/01/23 05:36:37;;;;;;;22.73;11.18;;;1.40;66.20;;;;;;4937730;29;20027;-66
2024/01/23 05:39:04;;;;;;;20.08;10.48;;;1.40;66.20;;;;;;4938207;29;20047;-66
2024/01/23 05:41:30;;;;;;;22.35;11.07;;;1.40;66.00;;;;;;4937735;29;20438;-66
2024/01/23 05:43:57;;;;;;;20.60;10.65;;;1.40;66.20;;;;;;4936792;29;20038;-66
2024/01/23 05:46:23;;;;;;;22.50;11.40;;;1.40;66.30;;;;;;4937945;29;20083;-66
2024/01/23 05:48:49;;;;;;;20.58;10.27;;;1.30;66.30;;;;;;4938616;29;20027;-66
2024/01/23 05:51:15;;;;;;;20.85;11.63;;;1.30;66.60;;;;;;4941271;29;20038;-67
2024/01/23 05:53:41;;;;;;;20.65;11.63;;;1.40;66.80;;;;;;4941278;29;20023;-67
2024/01/23 05:56:07;;;;;;;21.80;10.63;;;1.30;66.70;;;;;;4941672;29;20118;-67
2024/01/23 05:58:33;;;;;;;24.08;10.55;;;1.30;66.60;;;;;;4941046;29;20402;-66
2024/01/23 06:00:59;;;;;;;19.05;10.50;;;1.30;66.70;;;;;;4941422;29;20028;-66
2024/01/23 06:03:25;;;;;;;19.23;10.18;;;1.20;66.50;;;;;;4941381;29;20028;-66
2024/01/23 06:05:51;;;;;;;18.80;9.65;;;1.20;66.40;;;;;;4941334;29;20028;-66
2024/01/23 06:08:17;;;;;;;23.65;11.00;;;1.20;66.40;;;;;;4941161;29;20496;-67
2024/01/23 06:10:43;;;;;;;24.90;10.77;;;1.20;66.90;;;;;;4940983;29;20028;-67
2024/01/23 06:13:12;;;;;;;20.33;10.52;;;1.20;66.60;;;;;;4940964;29;20043;-67
2024/01/23 06:15:39;;;;;;;19.75;10.48;;;1.20;66.50;;;;;;4940805;29;20115;-67
2024/01/23 06:18:07;;;;;;;19.85;10.70;;;1.20;66.50;;;;;;4940851;29;20028;-67
2024/01/23 06:20:33;;;;;;;23.70;10.77;;;1.20;66.50;;;;;;4941024;29;20028;-66
2024/01/23 06:22:59;;;;;;;19.55;9.98;;;1.20;66.50;;;;;;4940737;29;20469;-67
2024/01/23 06:25:25;;;;;;;19.30;10.65;;;1.20;66.40;;;;;;4941265;29;20042;-67
2024/01/23 06:27:51;;;;;;;19.95;9.75;;;1.10;66.40;;;;;;4940592;29;20132;-67
2024/01/23 06:30:17;;;;;;;25.23;12.05;;;1.10;66.50;;;;;;4941085;29;20280;-65
2024/01/23 06:32:43;;;;;;;23.15;12.15;;;1.20;66.50;;;;;;4941079;29;20032;-68
2024/01/23 06:35:09;;;;;;;20.63;11.13;;;1.20;66.80;;;;;;4940868;29;20110;-65
2024/01/23 06:37:35;;;;;;;21.48;9.82;;;1.20;66.70;;;;;;4940598;29;20042;-66
2024/01/23 06:40:02;;;;;;;20.80;11.05;;;1.20;66.20;;;;;;4955448;29;20454;-66
2024/01/23 06:42:28;;;;;;;22.45;11.88;;;1.20;66.30;;;;;;4940390;29;20107;-66
2024/01/23 06:44:54;;;;;;;21.67;12.38;;;1.30;66.40;;;;;;4940632;29;20107;-66
2024/01/23 06:47:20;;;;;;;20.92;11.35;;;1.30;66.30;;;;;;4940484;29;20438;-66
2024/01/23 06:49:46;;;;;;;21.85;11.60;;;1.20;66.30;;;;;;4940226;29;20024;-67
2024/01/23 06:52:12;;;;;;;23.73;12.57;;;1.20;66.30;;;;;;4940189;29;20027;-66
2024/01/23 06:54:38;;;;;;;24.48;12.30;;;1.20;66.50;;;;;;4940163;29;20039;-66
2024/01/23 06:57:04;;;;;;;24.00;11.75;;;1.20;66.60;;;;;;4939948;29;20043;-66
2024/01/23 06:59:30;;;;;;;20.83;12.00;;;1.20;66.50;;;;;;4939546;29;20382;-66
2024/01/23 07:01:56;;;;;;;23.45;12.25;;;1.20;66.80;;;;;;4939860;29;20410;-66
2024/01/23 07:04:22;;;;;;;26.25;13.32;;;1.20;66.90;;;;;;4940038;29;20025;-66
2024/01/23 07:06:49;;;;;;;30.48;14.70;;;1.20;66.70;;;;;;4940201;29;20028;-67
2024/01/23 07:09:14;;;;;;;31.08;14.48;;;1.20;67.00;;;;;;4940155;29;20028;-68
2024/01/23 07:11:41;;;;;;;28.30;14.88;;;1.20;67.00;;;;;;4940146;29;20338;-67
2024/01/23 07:14:08;;;;;;;27.95;16.90;;;1.20;67.00;;;;;;4939775;29;20063;-68
2024/01/23 07:16:35;;;;;;;40.83;21.02;;;1.30;67.10;;;;;;4939717;29;20035;-67
2024/01/23 07:19:01;;;;;;;35.33;18.80;;;1.30;67.20;;;;;;4939899;29;20449;-67
2024/01/23 07:21:28;;;;;;;42.35;20.58;;;1.30;66.70;;;;;;4940206;29;20047;-67
2024/01/23 07:23:54;;;;;;;28.40;15.85;;;1.30;66.70;;;;;;4939627;29;20016;-67
2024/01/23 07:26:21;;;;;;;29.88;14.63;;;1.40;66.60;;;;;;4939547;29;20036;-67
2024/01/23 07:28:46;;;;;;;28.52;14.68;;;1.40;67.00;;;;;;4939573;29;20617;-67
2024/01/23 07:31:13;;;;;;;31.60;15.25;;;1.40;67.10;;;;;;4939516;29;20110;-67
2024/01/23 07:33:39;;;;;;;34.08;15.90;;;1.40;67.10;;;;;;5245570;23;20094;-69
2024/01/23 07:36:05;;;;;;;35.08;16.15;;;1.50;67.20;;;;;;4978128;28;20479;-69
2024/01/23 07:38:31;;;;;;;32.55;15.82;;;1.50;67.40;;;;;;4977786;28;20031;-69
2024/01/23 07:40:57;;;;;;;31.77;15.43;;;1.60;67.20;;;;;;4977939;28;20419;-69
2024/01/23 07:43:28;;;;;;;29.58;14.82;;;1.70;67.70;;;;;;4977905;28;20348;-69
2024/01/23 07:45:54;;;;;;;34.28;15.50;;;1.80;67.60;;;;;;4969996;28;20059;-70
2024/01/23 07:48:20;;;;;;;28.73;15.80;;;1.90;67.70;;;;;;4958594;28;20057;-68
2024/01/23 07:50:47;;;;;;;29.92;15.27;;;2.00;67.80;;;;;;4958228;28;20353;-70
2024/01/23 07:53:13;;;;;;;33.13;14.95;;;2.10;68.10;;;;;;4958104;28;20023;-69
2024/01/23 07:55:40;;;;;;;34.15;16.98;;;2.20;67.50;;;;;;4958349;28;20038;-70
2024/01/23 07:58:08;;;;;;;30.98;17.50;;;2.40;67.20;;;;;;4958119;28;20074;-70
2024/01/23 08:00:34;;;;;;;39.05;20.73;;;2.60;67.10;;;;;;4958007;28;20027;-70
2024/01/23 08:03:00;;;;;;;46.38;22.67;;;2.70;66.80;;;;;;4957969;28;20033;-70
2024/01/23 08:05:26;;;;;;;46.08;21.38;;;2.90;67.00;;;;;;4958267;28;20350;-70
2024/01/23 08:07:52;;;;;;;39.35;20.88;;;2.90;66.70;;;;;;4958473;28;20078;-70
2024/01/23 08:10:21;;;;;;;38.05;20.15;;;3.10;67.10;;;;;;4959364;28;20119;-69
2024/01/23 08:12:47;;;;;;;34.90;18.88;;;3.20;66.70;;;;;;4962736;28;20083;-70
2024/01/23 08:15:13;;;;;;;35.63;19.50;;;3.30;66.90;;;;;;4962990;28;20078;-70
2024/01/23 08:17:40;;;;;;;36.05;20.23;;;3.50;66.80;;;;;;4963738;28;20023;-71
2024/01/23 08:20:08;;;;;;;35.10;18.88;;;3.60;66.60;;;;;;4962766;28;20099;-70
2024/01/23 08:22:34;;;;;;;38.15;18.92;;;3.80;66.30;;;;;;4962326;28;20402;-70
2024/01/23 08:25:01;;;;;;;29.05;16.60;;;3.90;66.40;;;;;;4962634;28;20070;-70
2024/01/23 08:27:27;;;;;;;32.83;17.48;;;4.00;66.30;;;;;;4961927;28;20148;-70
2024/01/23 08:29:53;;;;;;;35.90;18.83;;;4.20;66.00;;;;;;5258466;23;20102;-72
2024/01/23 08:32:19;;;;;;;43.78;21.13;;;4.40;65.90;;;;;;4996488;28;20026;-74
2024/01/23 08:34:45;;;;;;;37.38;20.70;;;4.60;65.70;;;;;;4996237;28;20034;-73
2024/01/23 08:37:11;;;;;;;39.15;21.33;;;4.80;65.40;;;;;;4996559;28;20022;-73
2024/01/23 08:39:37;;;;;;;41.20;22.73;;;4.90;65.30;;;;;;4986085;28;20428;-73
2024/01/23 08:42:03;;;;;;;40.25;22.90;;;5.10;65.30;;;;;;4976755;28;20038;-73
2024/01/23 08:44:29;;;;;;;38.45;21.45;;;5.20;64.70;;;;;;4976785;28;20425;-73
2024/01/23 08:46:55;;;;;;;35.40;18.98;;;5.40;64.60;;;;;;4981758;28;20114;-74
2024/01/23 08:49:21;;;;;;;32.58;18.58;;;5.50;64.50;;;;;;4983900;28;20030;-73
2024/01/23 08:51:47;;;;;;;35.90;19.83;;;5.60;64.40;;;;;;4984119;28;20034;-73
2024/01/23 08:54:18;;;;;;;35.08;20.33;;;5.90;64.20;;;;;;4984445;28;20101;-73
2024/01/23 08:56:46;;;;;;;37.72;21.27;;;6.00;64.00;;;;;;4983895;28;20043;-74
2024/01/23 08:59:14;;;;;;;40.28;21.60;;;6.10;63.60;;;;;;4983851;28;20057;-73
2024/01/23 09:01:41;;;;;;;44.00;21.45;;;6.20;63.70;;;;;;4983838;28;20031;-73
2024/01/23 09:04:08;;;;;;;33.53;19.48;;;6.40;63.60;;;;;;4979043;28;20031;-73
2024/01/23 09:06:34;;;;;;;34.63;17.15;;;6.50;63.50;;;;;;4976880;28;20031;-73
2024/01/23 09:09:00;;;;;;;32.22;16.33;;;6.70;63.30;;;;;;4976304;28;20027;-73
2024/01/23 09:11:26;;;;;;;27.88;15.80;;;6.90;63.10;;;;;;4976642;28;20113;-74
2024/01/23 09:13:52;;;;;;;27.88;16.23;;;6.90;63.00;;;;;;4976900;28;20444;-74
2024/01/23 09:16:18;;;;;;;27.10;15.48;;;7.10;62.40;;;;;;4976235;28;20031;-74
2024/01/23 09:18:48;;;;;;;27.02;15.27;;;7.30;62.20;;;;;;4976039;28;20061;-73
2024/01/23 09:21:17;;;;;;;23.95;13.13;;;7.40;62.30;;;;;;4974923;28;20027;-73
2024/01/23 09:23:43;;;;;;;26.50;14.68;;;7.50;61.30;;;;;;4977730;28;20023;-73
2024/01/23 09:26:12;;;;;;;22.40;12.20;;;7.70;61.20;;;;;;4980172;28;20026;-74
2024/01/23 09:28:38;;;;;;;18.20;10.35;;;7.80;60.50;;;;;;4980343;28;20026;-74
2024/01/23 09:31:04;;;;;;;16.83;9.35;;;7.90;59.50;;;;;;4979951;28;20047;-73
2024/01/23 09:33:30;;;;;;;17.83;9.18;;;8.00;58.50;;;;;;4979138;28;20122;-73
2024/01/23 09:35:56;;;;;;;14.40;8.23;;;8.20;57.80;;;;;;4980474;28;20385;-73
2024/01/23 09:38:22;;;;;;;14.82;8.10;;;8.30;56.80;;;;;;4980255;28;20034;-73
2024/01/23 09:40:50;;;;;;;15.25;8.52;;;8.40;56.90;;;;;;4979966;28;20081;-73
2024/01/23 09:43:20;;;;;;;16.67;9.27;;;8.50;55.30;;;;;;4979815;28;20463;-74
2024/01/23 09:45:48;;;;;;;18.30;9.30;;;8.60;54.90;;;;;;4980135;28;20046;-73
2024/01/23 09:48:15;;;;;;;17.75;9.60;;;8.70;54.00;;;;;;4980071;28;20027;-73
2024/01/23 09:50:44;;;;;;;21.20;9.80;;;8.80;53.80;;;;;;4979704;28;20043;-74
2024/01/23 09:53:11;;;;;;;16.85;9.70;;;8.90;54.50;;;;;;4979970;28;20031;-73
2024/01/23 09:55:38;;;;;;;19.58;9.55;;;8.90;51.90;;;;;;4979548;28;20026;-74
2024/01/23 09:58:04;;;;;;;15.32;8.38;;;9.00;52.10;;;;;;4979901;28;20027;-74
2024/01/23 10:00:30;;;;;;;19.27;8.90;;;9.10;52.30;;;;;;4979577;28;20030;-74
2024/01/23 10:02:56;;;;;;;14.95;7.78;;;9.20;50.50;;;;;;4979593;28;20174;-73
2024/01/23 10:05:22;;;;;;;13.57;7.13;;;9.30;51.40;;;;;;4979547;28;20364;-73
2024/01/23 10:07:48;;;;;;;16.52;9.00;;;9.30;51.70;;;;;;4979744;28;20109;-73
2024/01/23 10:10:17;;;;;;;13.32;7.45;;;9.40;50.90;;;;;;4979903;28;20029;-74
2024/01/23 10:12:46;;;;;;;12.85;7.30;;;9.50;51.20;;;;;;4979328;28;20476;-74
2024/01/23 10:15:16;;;;;;;17.25;8.38;;;9.60;51.60;;;;;;4979541;28;20033;-73
2024/01/23 10:17:44;;;;;;;15.45;8.60;;;9.70;49.70;;;;;;4979190;28;20023;-74
2024/01/23 10:20:11;;;;;;;14.82;9.25;;;9.70;50.20;;;;;;4979130;28;20027;-74
2024/01/23 10:22:37;;;;;;;15.80;7.88;;;9.80;50.00;;;;;;4979491;28;20153;-73
2024/01/23 10:25:20;;;;;;;16.02;9.15;;;9.90;50.60;;;;;;4978237;28;20019;-73
2024/01/23 10:27:53;;;;;;;15.20;8.30;;;9.90;50.20;;;;;;4979402;28;20054;-74
2024/01/23 10:30:19;;;;;;;16.40;9.45;;;10.00;50.90;;;;;;4978883;28;20046;-73
2024/01/23 10:32:46;;;;;;;20.15;9.98;;;10.10;50.50;;;;;;4979246;28;20034;-73
2024/01/23 10:35:12;;;;;;;19.65;9.25;;;10.20;50.70;;;;;;4978907;28;20077;-74
2024/01/23 10:37:40;;;;;;;17.70;9.70;;;10.30;49.50;;;;;;4979396;28;20027;-73
2024/01/23 10:40:10;;;;;;;18.40;9.52;;;10.30;49.00;;;;;;4979053;28;20079;-74
2024/01/23 10:42:38;;;;;;;15.98;9.05;;;10.30;49.50;;;;;;4978754;28;20034;-73
2024/01/23 10:45:05;;;;;;;18.80;10.20;;;10.40;49.40;;;;;;4979347;28;20121;-74
2024/01/23 10:47:31;;;;;;;18.15;10.77;;;10.50;50.00;;;;;;4979207;28;20039;-74
2024/01/23 10:49:57;;;;;;;17.20;9.00;;;10.50;49.40;;;;;;4978796;28;20348;-73
2024/01/23 10:52:31;;;;;;;21.15;12.05;;;10.60;49.20;;;;;;4978625;28;20076;-74
2024/01/23 10:54:59;;;;;;;23.13;13.45;;;10.60;49.60;;;;;;4978806;28;20034;-73
2024/01/23 10:57:27;;;;;;;18.00;10.18;;;10.70;48.90;;;;;;4979020;28;20027;-74
2024/01/23 10:59:54;;;;;;;16.10;9.57;;;10.80;49.40;;;;;;4978597;28;20483;-73
2024/01/23 11:02:28;;;;;;;17.83;9.38;;;10.80;48.10;;;;;;4977468;28;20054;-74
2024/01/23 11:04:54;;;;;;;14.77;9.10;;;10.90;49.40;;;;;;4978673;28;20034;-73
2024/01/23 11:07:41;;;;;;;17.05;9.55;;;10.90;49.00;;;;;;4978895;28;20030;-74
2024/01/23 11:10:12;;;;;;;17.10;9.40;;;10.90;48.70;;;;;;4977969;28;20062;-73
2024/01/23 11:13:02;;;;;;;16.15;9.20;;;10.90;49.10;;;;;;4978863;28;20023;-74
2024/01/23 11:15:29;;;;;;;16.33;8.65;;;11.00;48.30;;;;;;4977435;28;20126;-74
2024/01/23 11:18:18;;;;;;;14.60;8.63;;;11.10;48.70;;;;;;4977381;28;20031;-74
2024/01/23 11:20:44;;;;;;;17.30;9.23;;;11.10;49.10;;;;;;4978279;28;20141;-74
2024/01/23 11:23:15;;;;;;;15.13;9.45;;;11.20;48.30;;;;;;5242071;23;20058;-68
2024/01/23 11:25:58;;;;;;;16.73;9.20;;;11.20;48.50;;;;;;4978317;28;20070;-68
2024/01/23 11:28:26;;;;;;;16.23;9.40;;;11.20;48.30;;;;;;4978286;28;20042;-68
2024/01/23 11:31:14;;;;;;;18.55;9.93;;;11.30;48.10;;;;;;4978457;28;20022;-68
2024/01/23 11:33:40;;;;;;;17.75;10.30;;;11.30;47.90;;;;;;4977927;28;20026;-68
2024/01/23 11:36:15;;;;;;;18.17;10.23;;;11.40;47.20;;;;;;4977739;28;20026;-68
2024/01/23 11:38:49;;;;;;;16.67;9.40;;;11.40;47.50;;;;;;4977786;28;20031;-68
2024/01/23 11:41:22;;;;;;;17.38;10.02;;;11.40;47.50;;;;;;4978281;28;20050;-68
2024/01/23 11:44:02;;;;;;;15.40;8.95;;;11.40;47.40;;;;;;4977655;28;20041;-70
2024/01/23 11:46:29;;;;;;;16.67;9.15;;;11.50;47.30;;;;;;4975967;28;20157;-68
2024/01/23 11:48:55;;;;;;;18.45;10.45;;;11.60;47.10;;;;;;4977801;28;20042;-68
2024/01/23 11:51:22;;;;;;;16.55;9.45;;;11.50;45.60;;;;;;4978091;28;20027;-67
2024/01/23 11:53:48;;;;;;;14.18;8.05;;;11.60;45.50;;;;;;4977403;28;20096;-69
2024/01/23 11:56:15;;;;;;;15.32;9.43;;;11.50;45.20;;;;;;4977883;28;20034;-69
2024/01/23 11:58:44;;;;;;;17.02;8.70;;;11.50;45.50;;;;;;4977239;28;20121;-69
2024/01/23 12:01:14;;;;;;;16.92;8.52;;;11.60;46.10;;;;;;4976755;28;20018;-69
2024/01/23 12:03:48;;;;;;;15.85;9.38;;;11.60;45.10;;;;;;4976730;28;20110;-69
2024/01/23 12:06:15;;;;;;;16.95;8.85;;;11.70;44.20;;;;;;4976625;28;20027;-69
2024/01/23 12:08:42;;;;;;;17.13;9.27;;;11.70;45.20;;;;;;4977250;28;20042;-69
2024/01/23 12:11:09;;;;;;;17.20;9.05;;;11.70;45.10;;;;;;4977454;28;20061;-69
2024/01/23 12:13:38;;;;;;;13.30;8.43;;;11.80;45.00;;;;;;4977120;28;20428;-69
2024/01/23 12:16:10;;;;;;;14.82;8.55;;;11.90;45.60;;;;;;4977491;28;20390;-69
2024/01/23 12:18:36;;;;;;;15.73;8.82;;;11.90;45.70;;;;;;4976036;28;20023;-69
2024/01/23 12:21:04;;;;;;;17.17;8.85;;;11.90;44.90;;;;;;4976968;28;20074;-69
2024/01/23 12:23:31;;;;;;;14.77;8.55;;;11.90;45.10;;;;;;4977082;28;20134;-69
2024/01/23 12:25:57;;;;;;;14.80;9.15;;;12.00;44.70;;;;;;4975958;28;20034;-69
2024/01/23 12:28:24;;;;;;;16.15;8.48;;;12.00;43.20;;;;;;4975939;28;20038;-69
2024/01/23 12:30:50;;;;;;;15.23;8.20;;;12.10;44.10;;;;;;4976888;28;20061;-69
2024/01/23 12:33:21;;;;;;;14.85;8.38;;;12.00;43.90;;;;;;4976027;28;20054;-69
2024/01/23 12:35:50;;;;;;;15.55;9.13;;;12.10;44.00;;;;;;4977057;28;20027;-69
2024/01/23 12:38:18;;;;;;;14.38;8.27;;;12.10;44.60;;;;;;4976978;28;20330;-69